Time,TemperatureF,DewpointF,PressureIn,WindDirection,WindDirectionDegrees,WindSpeedMPH,WindSpeedGustMPH,Humidity,HourlyPrecipIn,Conditions,Clouds,dailyrainin,SolarRadiationWatts/m^2,SoftwareType,DateUTC
2013-05-31 00:02:00,76.0,65.0,-100.00,SSE,147,3.0,8.0,70,0.00,,,0.00,0.000000,,2013-05-31 05:02:00,
2013-05-31 00:12:00,76.0,65.0,-100.00,SSE,147,3.0,8.0,70,0.00,,,0.00,0.000000,,2013-05-31 05:12:00,
2013-05-31 00:32:00,75.0,65.0,-100.00,SE,142,3.0,8.0,72,0.00,,,0.00,0.000000,,2013-05-31 05:32:00,
2013-05-31 00:42:00,75.0,65.0,-100.00,SE,142,3.0,8.0,72,0.00,,,0.00,0.000000,,2013-05-31 05:42:00,
2013-05-31 00:52:00,75.0,65.0,-100.00,SE,142,3.0,8.0,72,0.00,,,0.00,0.000000,,2013-05-31 05:52:00,
2013-05-31 01:02:00,75.0,65.0,-100.00,SE,142,3.0,8.0,72,0.00,,,0.00,0.000000,,2013-05-31 06:02:00,
2013-05-31 01:12:00,75.0,65.0,-100.00,SE,142,3.0,8.0,72,0.00,,,0.00,0.000000,,2013-05-31 06:12:00,
2013-05-31 01:32:00,74.0,65.0,-100.00,SE,142,3.0,8.0,74,0.00,,,0.00,0.000000,,2013-05-31 06:32:00,
2013-05-31 01:42:00,74.0,65.0,-100.00,SE,142,3.0,8.0,74,0.00,,,0.00,0.000000,,2013-05-31 06:42:00,
2013-05-31 01:52:00,74.0,65.0,-100.00,SE,142,3.0,8.0,74,0.00,,,0.00,0.000000,,2013-05-31 06:52:00,
2013-05-31 02:02:00,74.0,65.0,-100.00,SE,142,3.0,8.0,74,0.00,,,0.00,0.000000,,2013-05-31 07:02:00,
2013-05-31 02:11:00,74.0,65.0,-100.00,SE,142,3.0,8.0,74,0.00,,,0.00,0.000000,,2013-05-31 07:11:00,
2013-05-31 02:32:00,74.0,66.0,-100.00,SE,146,3.0,8.0,77,0.00,,,0.00,0.000000,,2013-05-31 07:32:00,
2013-05-31 02:42:00,74.0,66.0,-100.00,SE,146,3.0,8.0,77,0.00,,,0.00,0.000000,,2013-05-31 07:42:00,
2013-05-31 02:52:00,74.0,66.0,-100.00,SE,146,3.0,8.0,77,0.00,,,0.00,0.000000,,2013-05-31 07:52:00,
2013-05-31 03:02:00,74.0,66.0,-100.00,SE,146,3.0,8.0,77,0.00,,,0.00,0.000000,,2013-05-31 08:02:00,
2013-05-31 03:11:00,74.0,66.0,-100.00,SE,146,3.0,8.0,77,0.00,,,0.00,0.000000,,2013-05-31 08:11:00,
2013-05-31 03:32:00,73.0,66.0,-100.00,South,171,2.0,6.0,80,0.00,,,0.00,0.000000,,2013-05-31 08:32:00,
2013-05-31 03:42:00,73.0,66.0,-100.00,South,171,2.0,6.0,80,0.00,,,0.00,0.000000,,2013-05-31 08:42:00,
2013-05-31 03:52:00,73.0,66.0,-100.00,South,171,2.0,6.0,80,0.00,,,0.00,0.000000,,2013-05-31 08:52:00,
2013-05-31 04:01:00,73.0,66.0,-100.00,South,171,2.0,6.0,80,0.00,,,0.00,0.000000,,2013-05-31 09:01:00,
2013-05-31 04:11:00,73.0,66.0,-100.00,South,171,2.0,6.0,80,0.00,,,0.00,0.000000,,2013-05-31 09:11:00,
2013-05-31 04:32:00,73.0,66.0,-100.00,South,183,3.0,7.0,78,0.00,,,0.00,0.000000,,2013-05-31 09:32:00,
2013-05-31 04:43:00,73.0,66.0,-100.00,South,183,3.0,7.0,78,0.00,,,0.00,0.000000,,2013-05-31 09:43:00,
2013-05-31 04:53:00,73.0,66.0,-100.00,South,183,3.0,7.0,78,0.00,,,0.00,0.000000,,2013-05-31 09:53:00,
2013-05-31 05:02:00,73.0,66.0,-100.00,South,183,3.0,7.0,78,0.00,,,0.00,0.000000,,2013-05-31 10:02:00,
2013-05-31 05:12:00,73.0,66.0,-100.00,South,183,3.0,7.0,78,0.00,,,0.00,0.000000,,2013-05-31 10:12:00,
2013-05-31 05:33:00,74.0,66.0,-100.00,SSW,196,4.0,11.0,76,0.00,,,0.00,0.000000,,2013-05-31 10:33:00,
2013-05-31 05:42:00,74.0,66.0,-100.00,SSW,196,4.0,11.0,76,0.00,,,0.00,0.000000,,2013-05-31 10:42:00,
2013-05-31 05:52:00,74.0,66.0,-100.00,SSW,196,4.0,11.0,76,0.00,,,0.00,0.000000,,2013-05-31 10:52:00,
2013-05-31 06:02:00,74.0,66.0,-100.00,SSW,196,4.0,11.0,76,0.00,,,0.00,0.000000,,2013-05-31 11:02:00,
2013-05-31 06:11:00,74.0,66.0,-100.00,SSW,196,4.0,11.0,76,0.00,,,0.00,0.000000,,2013-05-31 11:11:00,
2013-05-31 06:32:00,74.0,66.0,-100.00,SSW,209,5.0,13.0,76,0.00,,,0.00,13.000000,,2013-05-31 11:32:00,
2013-05-31 06:42:00,74.0,66.0,-100.00,SSW,209,5.0,13.0,76,0.00,,,0.00,13.000000,,2013-05-31 11:42:00,
2013-05-31 06:52:00,74.0,66.0,-100.00,SSW,209,5.0,13.0,76,0.00,,,0.00,13.000000,,2013-05-31 11:52:00,
2013-05-31 07:01:00,74.0,66.0,-100.00,SSW,209,5.0,13.0,76,0.00,,,0.00,13.000000,,2013-05-31 12:01:00,
2013-05-31 07:11:00,74.0,66.0,-100.00,SSW,209,5.0,13.0,76,0.00,,,0.00,13.000000,,2013-05-31 12:11:00,
2013-05-31 07:32:00,74.0,67.0,-100.00,SSW,204,4.0,10.0,79,0.00,,,0.00,34.000000,,2013-05-31 12:32:00,
2013-05-31 07:42:00,74.0,67.0,-100.00,SSW,204,4.0,10.0,79,0.00,,,0.00,34.000000,,2013-05-31 12:42:00,
2013-05-31 07:52:00,74.0,67.0,-100.00,SSW,204,4.0,10.0,79,0.00,,,0.00,34.000000,,2013-05-31 12:52:00,
2013-05-31 08:01:00,74.0,67.0,-100.00,SSW,204,4.0,10.0,79,0.00,,,0.00,34.000000,,2013-05-31 13:01:00,
2013-05-31 08:11:00,74.0,67.0,-100.00,SSW,204,4.0,10.0,79,0.00,,,0.00,34.000000,,2013-05-31 13:11:00,
2013-05-31 08:32:00,71.0,69.0,-100.00,SSW,208,5.0,20.0,92,0.15,,,0.15,58.000000,,2013-05-31 13:32:00,
2013-05-31 08:42:00,71.0,69.0,-100.00,SSW,208,5.0,20.0,92,0.15,,,0.15,58.000000,,2013-05-31 13:42:00,
2013-05-31 08:52:00,71.0,69.0,-100.00,SSW,208,5.0,20.0,92,0.15,,,0.15,58.000000,,2013-05-31 13:52:00,
2013-05-31 09:02:00,71.0,69.0,-100.00,SSW,208,5.0,20.0,92,0.15,,,0.15,58.000000,,2013-05-31 14:02:00,
2013-05-31 09:11:00,71.0,69.0,-100.00,SSW,208,5.0,20.0,92,0.15,,,0.15,58.000000,,2013-05-31 14:11:00,
2013-05-31 09:32:00,70.0,69.0,-100.00,SSW,202,4.0,13.0,97,0.15,,,0.30,34.000000,,2013-05-31 14:32:00,
2013-05-31 09:42:00,70.0,69.0,-100.00,SSW,202,4.0,13.0,97,0.15,,,0.30,34.000000,,2013-05-31 14:42:00,
2013-05-31 09:52:00,70.0,69.0,-100.00,SSW,202,4.0,13.0,97,0.15,,,0.30,34.000000,,2013-05-31 14:52:00,
2013-05-31 10:01:00,70.0,69.0,-100.00,SSW,202,4.0,13.0,97,0.15,,,0.30,34.000000,,2013-05-31 15:01:00,
2013-05-31 10:11:00,70.0,69.0,-100.00,SSW,202,4.0,13.0,97,0.15,,,0.30,34.000000,,2013-05-31 15:11:00,
2013-05-31 10:33:00,71.0,69.0,-100.00,SW,223,7.0,16.0,95,0.04,,,0.34,103.000000,,2013-05-31 15:33:00,
2013-05-31 10:43:00,71.0,69.0,-100.00,SW,223,7.0,16.0,95,0.04,,,0.34,103.000000,,2013-05-31 15:43:00,
2013-05-31 10:53:00,71.0,69.0,-100.00,SW,223,7.0,16.0,95,0.04,,,0.34,103.000000,,2013-05-31 15:53:00,
2013-05-31 11:03:00,71.0,69.0,-100.00,SW,223,7.0,16.0,95,0.04,,,0.34,103.000000,,2013-05-31 16:03:00,
2013-05-31 11:12:00,71.0,69.0,-100.00,SW,223,7.0,16.0,95,0.04,,,0.34,103.000000,,2013-05-31 16:12:00,
2013-05-31 11:33:00,71.0,70.0,-100.00,SW,216,5.0,13.0,97,0.16,,,0.50,49.000000,,2013-05-31 16:33:00,
2013-05-31 11:42:00,71.0,70.0,-100.00,SW,216,5.0,13.0,97,0.16,,,0.50,49.000000,,2013-05-31 16:42:00,
2013-05-31 11:52:00,71.0,70.0,-100.00,SW,216,5.0,13.0,97,0.16,,,0.50,49.000000,,2013-05-31 16:52:00,
2013-05-31 12:02:00,71.0,70.0,-100.00,SW,216,5.0,13.0,97,0.16,,,0.50,49.000000,,2013-05-31 17:02:00,
2013-05-31 12:12:00,71.0,70.0,-100.00,SW,216,5.0,13.0,97,0.16,,,0.50,49.000000,,2013-05-31 17:12:00,
2013-05-31 12:42:00,71.0,69.0,-100.00,SW,220,6.0,21.0,94,0.07,,,0.57,197.000000,,2013-05-31 17:42:00,
2013-05-31 12:52:00,71.0,69.0,-100.00,SW,220,6.0,21.0,94,0.07,,,0.57,197.000000,,2013-05-31 17:52:00,
2013-05-31 13:02:00,71.0,69.0,-100.00,SW,220,6.0,21.0,94,0.07,,,0.57,197.000000,,2013-05-31 18:02:00,
2013-05-31 13:11:00,71.0,69.0,-100.00,SW,220,6.0,21.0,94,0.07,,,0.57,197.000000,,2013-05-31 18:11:00,
2013-05-31 13:42:00,71.0,70.0,-100.00,WSW,249,3.0,8.0,96,0.14,,,0.71,165.000000,,2013-05-31 18:42:00,
2013-05-31 13:52:00,71.0,70.0,-100.00,WSW,249,3.0,8.0,96,0.14,,,0.71,165.000000,,2013-05-31 18:52:00,
2013-05-31 14:02:00,71.0,70.0,-100.00,WSW,249,3.0,8.0,96,0.14,,,0.71,165.000000,,2013-05-31 19:02:00,
2013-05-31 14:11:00,71.0,70.0,-100.00,WSW,249,3.0,8.0,96,0.14,,,0.71,165.000000,,2013-05-31 19:11:00,
2013-05-31 14:42:00,75.0,73.0,-100.00,West,270,2.0,6.0,92,0.24,,,0.95,192.000000,,2013-05-31 19:42:00,
2013-05-31 14:52:00,75.0,73.0,-100.00,West,270,2.0,6.0,92,0.24,,,0.95,192.000000,,2013-05-31 19:52:00,
2013-05-31 15:02:00,75.0,73.0,-100.00,West,270,2.0,6.0,92,0.24,,,0.95,192.000000,,2013-05-31 20:02:00,
2013-05-31 15:11:00,75.0,73.0,-100.00,West,270,2.0,6.0,92,0.24,,,0.95,192.000000,,2013-05-31 20:11:00,
2013-05-31 15:32:00,82.0,75.0,-100.00,SSW,200,4.0,9.0,80,0.00,,,0.95,521.000000,,2013-05-31 20:32:00,
2013-05-31 15:42:00,82.0,75.0,-100.00,SSW,200,4.0,9.0,80,0.00,,,0.95,521.000000,,2013-05-31 20:42:00,
2013-05-31 15:52:00,82.0,75.0,-100.00,SSW,200,4.0,9.0,80,0.00,,,0.95,521.000000,,2013-05-31 20:52:00,
2013-05-31 16:01:00,82.0,75.0,-100.00,SSW,200,4.0,9.0,80,0.00,,,0.95,521.000000,,2013-05-31 21:01:00,
2013-05-31 16:11:00,82.0,75.0,-100.00,SSW,200,4.0,9.0,80,0.00,,,0.95,521.000000,,2013-05-31 21:11:00,
2013-05-31 16:33:00,80.0,73.0,-100.00,SSW,208,3.0,11.0,79,0.00,,,0.95,313.000000,,2013-05-31 21:33:00,
2013-05-31 16:43:00,80.0,73.0,-100.00,SSW,208,3.0,11.0,79,0.00,,,0.95,313.000000,,2013-05-31 21:43:00,
2013-05-31 16:54:00,80.0,73.0,-100.00,SSW,208,3.0,11.0,79,0.00,,,0.95,313.000000,,2013-05-31 21:54:00,
2013-05-31 17:02:00,80.0,73.0,-100.00,SSW,208,3.0,11.0,79,0.00,,,0.95,313.000000,,2013-05-31 22:02:00,
2013-05-31 17:12:00,80.0,73.0,-100.00,SSW,208,3.0,11.0,79,0.00,,,0.95,313.000000,,2013-05-31 22:12:00,
2013-05-31 17:33:00,84.0,74.0,-100.00,SSW,192,4.0,10.0,71,0.00,,,0.95,443.000000,,2013-05-31 22:33:00,
2013-05-31 17:42:00,84.0,74.0,-100.00,SSW,192,4.0,10.0,71,0.00,,,0.95,443.000000,,2013-05-31 22:42:00,
2013-05-31 17:53:00,84.0,74.0,-100.00,SSW,192,4.0,10.0,71,0.00,,,0.95,443.000000,,2013-05-31 22:53:00,
2013-05-31 18:02:00,84.0,74.0,-100.00,SSW,192,4.0,10.0,71,0.00,,,0.95,443.000000,,2013-05-31 23:02:00,
2013-05-31 18:12:00,84.0,74.0,-100.00,SSW,192,4.0,10.0,71,0.00,,,0.95,443.000000,,2013-05-31 23:12:00,
2013-05-31 18:32:00,82.0,74.0,-100.00,SSW,207,2.0,11.0,76,0.00,,,0.95,198.000000,,2013-05-31 23:32:00,
2013-05-31 18:42:00,82.0,74.0,-100.00,SSW,207,2.0,11.0,76,0.00,,,0.95,198.000000,,2013-05-31 23:42:00,
2013-05-31 18:52:00,82.0,74.0,-100.00,SSW,207,2.0,11.0,76,0.00,,,0.95,198.000000,,2013-05-31 23:52:00,
2013-05-31 19:01:00,82.0,74.0,-100.00,SSW,207,2.0,11.0,76,0.00,,,0.95,198.000000,,2013-06-01 00:01:00,
2013-05-31 19:11:00,82.0,74.0,-100.00,SSW,207,2.0,11.0,76,0.00,,,0.95,198.000000,,2013-06-01 00:11:00,
2013-05-31 19:32:00,80.0,73.0,-100.00,South,181,3.0,6.0,79,0.00,,,-99.99,139.000000,,2013-06-01 00:32:00,
2013-05-31 19:42:00,80.0,73.0,-100.00,South,181,3.0,6.0,79,0.00,,,-99.99,139.000000,,2013-06-01 00:42:00,
2013-05-31 19:52:00,80.0,73.0,-100.00,South,181,3.0,6.0,79,0.00,,,-99.99,139.000000,,2013-06-01 00:52:00,
2013-05-31 20:01:00,80.0,73.0,-100.00,South,181,3.0,6.0,79,0.00,,,-99.99,139.000000,,2013-06-01 01:01:00,
2013-05-31 20:11:00,80.0,73.0,-100.00,South,181,3.0,6.0,79,0.00,,,-99.99,139.000000,,2013-06-01 01:11:00,
2013-05-31 20:32:00,76.0,72.0,-100.00,SE,130,2.0,7.0,86,0.00,,,0.95,22.000000,,2013-06-01 01:32:00,
2013-05-31 20:42:00,76.0,72.0,-100.00,SE,130,2.0,7.0,86,0.00,,,0.95,22.000000,,2013-06-01 01:42:00,
2013-05-31 20:52:00,76.0,72.0,-100.00,SE,130,2.0,7.0,86,0.00,,,0.95,22.000000,,2013-06-01 01:52:00,
2013-05-31 21:01:00,76.0,72.0,-100.00,SE,130,2.0,7.0,86,0.00,,,0.95,22.000000,,2013-06-01 02:01:00,
2013-05-31 21:11:00,76.0,72.0,-100.00,SE,130,2.0,7.0,86,0.00,,,0.95,22.000000,,2013-06-01 02:11:00,
2013-05-31 21:32:00,76.0,70.0,-100.00,South,177,4.0,9.0,82,0.00,,,0.95,0.000000,,2013-06-01 02:32:00,
2013-05-31 21:42:00,76.0,70.0,-100.00,South,177,4.0,9.0,82,0.00,,,0.95,0.000000,,2013-06-01 02:42:00,
2013-05-31 21:52:00,76.0,70.0,-100.00,South,177,4.0,9.0,82,0.00,,,0.95,0.000000,,2013-06-01 02:52:00,
2013-05-31 22:02:00,76.0,70.0,-100.00,South,177,4.0,9.0,82,0.00,,,0.95,0.000000,,2013-06-01 03:02:00,
2013-05-31 22:11:00,76.0,70.0,-100.00,South,177,4.0,9.0,82,0.00,,,0.95,0.000000,,2013-06-01 03:11:00,
2013-05-31 22:33:00,77.0,69.0,-100.00,SSW,202,5.0,10.0,76,0.00,,,0.95,0.000000,,2013-06-01 03:33:00,
2013-05-31 22:43:00,77.0,69.0,-100.00,SSW,202,5.0,10.0,76,0.00,,,0.95,0.000000,,2013-06-01 03:43:00,
2013-05-31 22:53:00,77.0,69.0,-100.00,SSW,202,5.0,10.0,76,0.00,,,0.95,0.000000,,2013-06-01 03:53:00,
2013-05-31 23:03:00,77.0,69.0,-100.00,SSW,202,5.0,10.0,76,0.00,,,0.95,0.000000,,2013-06-01 04:03:00,
2013-05-31 23:12:00,77.0,69.0,-100.00,SSW,202,5.0,10.0,76,0.00,,,0.95,0.000000,,2013-06-01 04:12:00,
2013-05-31 23:33:00,77.0,68.0,-100.00,South,190,4.0,12.0,75,0.00,,,0.95,0.000000,,2013-06-01 04:33:00,
2013-05-31 23:42:00,77.0,68.0,-100.00,South,190,4.0,12.0,75,0.00,,,0.95,0.000000,,2013-06-01 04:42:00,
2013-05-31 23:53:00,77.0,68.0,-100.00,South,190,4.0,12.0,75,0.00,,,0.95,0.000000,,2013-06-01 04:53:00,